Time;durP1;ratioP1;P1;durP2;ratioP2;P2;SDS_P1;SDS_P2;PMS_P1;PMS_P2;Temp;Humidity;BMP_temperature;BMP_pressure;BME280_temperature;BME280_humidity;BME280_pressure;Samples;Min_cycle;Max_cycle;Signal;HPM_P1;HPM_P2
2022/09/05 00:00:02;;;;;;;;;1.00;1.00;;;;;;;;4981513;28;45459;-71
2022/09/05 00:02:27;;;;;;;;;4.50;2.75;;;;;;;;4990459;28;45551;-72
2022/09/05 00:04:58;;;;;;;;;2.60;2.00;;;;;;;;4983882;27;45332;-72
2022/09/05 00:07:32;;;;;;;;;2.00;2.00;;;;;;;;4985431;27;45333;-71
2022/09/05 00:10:06;;;;;;;;;3.00;2.00;;;;;;;;4983198;27;45598;-72
2022/09/05 00:12:32;;;;;;;;;3.00;3.00;;;;;;;;4995649;27;45429;-71
2022/09/05 00:15:04;;;;;;;;;2.25;2.25;;;;;;;;4978805;27;45365;-71
2022/09/05 00:17:52;;;;;;;;;2.00;2.00;;;;;;;;4988376;28;45222;-72
2022/09/05 00:20:35;;;;;;;;;2.25;2.25;;;;;;;;4972999;27;45510;-71
2022/09/05 00:23:04;;;;;;;;;3.00;3.00;;;;;;;;4979868;28;46436;-72
2022/09/05 00:25:48;;;;;;;;;2.50;2.50;;;;;;;;4985090;27;45332;-72
2022/09/05 00:28:22;;;;;;;;;3.00;3.00;;;;;;;;4991868;27;45354;-71
2022/09/05 00:31:10;;;;;;;;;3.00;3.00;;;;;;;;4986104;28;45305;-71
2022/09/05 00:33:42;;;;;;;;;2.75;2.75;;;;;;;;4981295;27;45475;-72
2022/09/05 00:36:16;;;;;;;;;2.50;2.50;;;;;;;;4978583;27;45474;-72
2022/09/05 00:38:50;;;;;;;;;3.00;3.00;;;;;;;;4980539;27;45287;-71
2022/09/05 00:41:16;;;;;;;;;2.00;2.00;;;;;;;;4985719;27;45358;-71
2022/09/05 00:43:43;;;;;;;;;4.00;4.00;;;;;;;;4988205;27;46727;-72
2022/09/05 00:46:18;;;;;;;;;2.25;2.00;;;;;;;;4987869;27;45348;-72
2022/09/05 00:48:57;;;;;;;;;2.25;2.00;;;;;;;;4981228;28;45463;-71
2022/09/05 00:51:33;;;;;;;;;2.25;2.25;;;;;;;;4988673;27;47253;-71
2022/09/05 00:54:01;;;;;;;;;4.75;2.00;;;;;;;;4983411;28;45398;-71
2022/09/05 00:56:52;;;;;;;;;3.75;2.50;;;;;;;;4986776;28;45390;-71
2022/09/05 00:59:32;;;;;;;;;3.33;3.33;;;;;;;;4983848;27;45283;-71
2022/09/05 01:02:13;;;;;;;;;4.33;2.67;;;;;;;;4991400;27;45073;-71
2022/09/05 01:04:46;;;;;;;;;2.00;2.00;;;;;;;;4985724;27;45513;-71
2022/09/05 01:07:34;;;;;;;;;5.33;4.00;;;;;;;;4989974;27;45454;-71
2022/09/05 01:10:13;;;;;;;;;2.00;2.00;;;;;;;;4983822;27;45588;-71
2022/09/05 01:12:49;;;;;;;;;3.00;3.00;;;;;;;;4994271;27;45320;-71
2022/09/05 01:15:21;;;;;;;;;2.67;2.67;;;;;;;;4981180;28;45795;-71
2022/09/05 01:17:51;;;;;;;;;3.33;3.33;;;;;;;;4990193;28;45317;-71
2022/09/05 01:20:16;;;;;;;;;4.33;3.00;;;;;;;;4986423;27;45299;-71
2022/09/05 01:22:47;;;;;;;;;3.33;3.33;;;;;;;;4988553;27;45485;-71
2022/09/05 01:25:31;;;;;;;;;4.00;3.00;;;;;;;;4987173;28;45472;-71
2022/09/05 01:28:21;;;;;;;;;3.33;3.33;;;;;;;;4989404;27;45373;-71
2022/09/05 01:30:49;;;;;;;;;3.67;3.00;;;;;;;;4983711;27;45225;-71
2022/09/05 01:33:33;;;;;;;;;3.67;3.67;;;;;;;;4980390;28;45452;-71
2022/09/05 01:36:17;;;;;;;;;3.00;3.00;;;;;;;;4989689;27;46192;-72
2022/09/05 01:38:42;;;;;;;;;2.00;2.00;;;;;;;;4988579;27;45272;-71
2022/09/05 01:41:20;;;;;;;;;4.00;4.00;;;;;;;;4985196;27;45484;-71
2022/09/05 01:43:57;;;;;;;;;3.67;2.67;;;;;;;;4983895;28;45519;-71
2022/09/05 01:46:23;;;;;;;;;3.00;3.00;;;;;;;;4992551;27;46398;-71
2022/09/05 01:48:55;;;;;;;;;4.00;4.00;;;;;;;;4982364;27;45566;-71
2022/09/05 01:51:25;;;;;;;;;3.33;2.33;;;;;;;;4984364;27;45921;-71
2022/09/05 01:53:54;;;;;;;;;2.00;2.00;;;;;;;;4986310;27;45256;-71
2022/09/05 01:56:26;;;;;;;;;2.33;2.33;;;;;;;;4979704;28;45304;-71
2022/09/05 01:58:56;;;;;;;;;3.00;3.00;;;;;;;;4986135;28;45314;-71
2022/09/05 02:01:39;;;;;;;;;3.33;3.33;;;;;;;;4983432;28;45452;-71
2022/09/05 02:04:22;;;;;;;;;3.67;3.00;;;;;;;;4988878;28;45409;-71
2022/09/05 02:07:00;;;;;;;;;3.00;3.00;;;;;;;;4986404;27;45418;-71
2022/09/05 02:09:25;;;;;;;;;2.33;2.33;;;;;;;;4988436;27;45485;-71
2022/09/05 02:11:55;;;;;;;;;2.67;2.00;;;;;;;;4991715;27;45288;-71
2022/09/05 02:14:26;;;;;;;;;2.33;2.33;;;;;;;;4984143;27;45429;-71
2022/09/05 02:16:54;;;;;;;;;3.00;3.00;;;;;;;;4989330;27;45323;-71
2022/09/05 02:19:24;;;;;;;;;4.00;3.00;;;;;;;;4979675;28;45319;-71
2022/09/05 02:22:00;;;;;;;;;2.00;2.00;;;;;;;;4982932;28;45298;-71
2022/09/05 02:24:31;;;;;;;;;3.00;3.00;;;;;;;;4983830;27;45490;-71
2022/09/05 02:27:01;;;;;;;;;2.00;2.00;;;;;;;;4985666;27;46142;-71
2022/09/05 02:29:29;;;;;;;;;4.00;4.00;;;;;;;;4984180;28;45757;-71
2022/09/05 02:31:58;;;;;;;;;2.67;2.67;;;;;;;;4993130;28;45367;-72
2022/09/05 02:34:33;;;;;;;;;3.00;3.00;;;;;;;;4994853;27;45286;-72
2022/09/05 02:37:01;;;;;;;;;2.00;2.00;;;;;;;;4978377;28;46103;-71
2022/09/05 02:39:47;;;;;;;;;3.00;3.00;;;;;;;;4983202;27;44818;-71
2022/09/05 02:42:26;;;;;;;;;6.00;4.00;;;;;;;;4989555;27;45429;-71
2022/09/05 02:44:57;;;;;;;;;2.67;2.67;;;;;;;;4990364;28;45425;-71
2022/09/05 02:47:37;;;;;;;;;2.67;2.67;;;;;;;;4985665;27;46126;-71
2022/09/05 02:50:05;;;;;;;;;5.67;3.67;;;;;;;;4985990;27;45235;-71
2022/09/05 02:52:31;;;;;;;;;6.67;5.00;;;;;;;;4991369;28;45366;-71
2022/09/05 02:54:58;;;;;;;;;3.00;2.67;;;;;;;;4976960;27;45507;-72
2022/09/05 02:57:35;;;;;;;;;6.33;5.00;;;;;;;;4988831;27;45336;-71
2022/09/05 03:00:06;;;;;;;;;4.00;1.67;;;;;;;;4978358;28;45334;-71
2022/09/05 03:02:44;;;;;;;;;6.33;4.00;;;;;;;;4995264;27;45478;-71
2022/09/05 03:05:09;;;;;;;;;3.00;3.00;;;;;;;;4991844;27;45451;-71
2022/09/05 03:07:53;;;;;;;;;6.00;4.00;;;;;;;;4997517;27;45380;-71
2022/09/05 03:10:37;;;;;;;;;6.00;4.00;;;;;;;;4986396;27;45268;-72
2022/09/05 03:13:05;;;;;;;;;4.67;3.67;;;;;;;;4988012;27;45406;-72
2022/09/05 03:16:03;;;;;;;;;4.00;4.00;;;;;;;;4981481;27;46117;-71
2022/09/05 03:18:43;;;;;;;;;3.00;3.00;;;;;;;;4965012;27;47216;-72
2022/09/05 03:21:14;;;;;;;;;3.67;2.00;;;;;;;;4980603;27;45337;-72
2022/09/05 03:23:45;;;;;;;;;3.00;3.00;;;;;;;;4980291;27;45400;-71
2022/09/05 03:26:29;;;;;;;;;3.00;3.00;;;;;;;;4982775;28;45508;-72
2022/09/05 03:28:54;;;;;;;;;5.67;3.00;;;;;;;;4984745;27;45319;-72
2022/09/05 03:31:22;;;;;;;;;4.00;2.00;;;;;;;;4986255;28;45346;-71
2022/09/05 03:34:02;;;;;;;;;2.00;2.00;;;;;;;;4993954;27;45481;-71
2022/09/05 03:36:34;;;;;;;;;2.00;2.00;;;;;;;;4986319;27;45300;-71
2022/09/05 03:39:17;;;;;;;;;2.33;2.00;;;;;;;;4987774;28;45392;-71
2022/09/05 03:42:06;;;;;;;;;2.00;2.00;;;;;;;;4987713;27;45265;-71
2022/09/05 03:44:38;;;;;;;;;3.00;3.00;;;;;;;;4982061;28;45320;-71
2022/09/05 03:47:19;;;;;;;;;4.00;2.00;;;;;;;;4980345;27;45332;-71
2022/09/05 03:49:51;;;;;;;;;2.00;2.00;;;;;;;;4985293;27;45338;-71
2022/09/05 03:52:35;;;;;;;;;3.67;2.67;;;;;;;;4984578;27;45351;-71
2022/09/05 03:55:09;;;;;;;;;2.00;2.00;;;;;;;;4981633;28;45520;-72
2022/09/05 03:57:35;;;;;;;;;3.00;3.00;;;;;;;;4987427;27;45601;-72
2022/09/05 04:00:03;;;;;;;;;5.00;3.33;;;;;;;;4987083;27;45196;-72
2022/09/05 04:02:30;;;;;;;;;2.33;2.33;;;;;;;;4990054;27;45319;-71
2022/09/05 04:05:02;;;;;;;;;3.00;3.00;;;;;;;;4991678;27;45513;-72
2022/09/05 04:07:42;;;;;;;;;3.67;3.67;;;;;;;;4992334;27;45358;-71
2022/09/05 04:10:13;;;;;;;;;2.00;2.00;;;;;;;;4987233;27;45529;-71
2022/09/05 04:12:48;;;;;;;;;3.00;3.00;;;;;;;;4995998;28;45419;-71
2022/09/05 04:15:33;;;;;;;;;2.00;2.00;;;;;;;;4980909;28;45359;-71
2022/09/05 04:18:00;;;;;;;;;4.33;2.67;;;;;;;;4986230;27;45426;-71
2022/09/05 04:20:25;;;;;;;;;4.00;3.33;;;;;;;;4980621;27;46123;-71
2022/09/05 04:22:59;;;;;;;;;4.00;3.00;;;;;;;;4992255;27;45579;-71
2022/09/05 04:25:27;;;;;;;;;3.00;3.00;;;;;;;;4985326;28;45390;-71
2022/09/05 04:28:02;;;;;;;;;5.00;3.67;;;;;;;;4988670;27;46305;-72
2022/09/05 04:30:42;;;;;;;;;6.67;5.67;;;;;;;;4986440;28;45326;-71
2022/09/05 04:33:14;;;;;;;;;3.67;3.67;;;;;;;;4993456;28;45480;-71
2022/09/05 04:35:47;;;;;;;;;5.00;3.00;;;;;;;;4998549;27;45432;-71
2022/09/05 04:38:13;;;;;;;;;3.67;3.67;;;;;;;;4995076;27;45294;-71
2022/09/05 04:40:41;;;;;;;;;3.33;3.33;;;;;;;;4983948;28;46395;-71
2022/09/05 04:43:12;;;;;;;;;3.67;2.67;;;;;;;;4987703;27;45298;-71
2022/09/05 04:45:43;;;;;;;;;2.67;2.67;;;;;;;;4981397;28;45212;-71
2022/09/05 04:48:12;;;;;;;;;4.67;3.67;;;;;;;;4982080;27;45382;-71
2022/09/05 04:51:00;;;;;;;;;5.00;2.67;;;;;;;;4982478;28;45457;-71
2022/09/05 04:53:35;;;;;;;;;4.00;4.00;;;;;;;;4978789;28;45540;-71
2022/09/05 04:56:04;;;;;;;;;3.67;3.67;;;;;;;;4984071;27;45409;-71
2022/09/05 04:58:30;;;;;;;;;4.33;2.67;;;;;;;;4987366;27;45300;-72
2022/09/05 05:01:21;;;;;;;;;4.00;4.00;;;;;;;;4985947;28;45363;-71
2022/09/05 05:03:46;;;;;;;;;3.00;3.00;;;;;;;;4988144;27;45490;-71
2022/09/05 05:06:20;;;;;;;;;4.33;4.33;;;;;;;;4985707;27;45315;-71
2022/09/05 05:08:51;;;;;;;;;3.67;3.67;;;;;;;;4994497;27;45489;-71
2022/09/05 05:11:25;;;;;;;;;6.67;5.00;;;;;;;;4990913;27;45372;-71
2022/09/05 05:13:58;;;;;;;;;5.00;5.00;;;;;;;;4988573;28;45414;-71
2022/09/05 05:16:24;;;;;;;;;7.67;3.67;;;;;;;;4979556;28;45319;-72
2022/09/05 05:18:52;;;;;;;;;4.33;4.33;;;;;;;;4983382;28;45462;-71
2022/09/05 05:21:26;;;;;;;;;7.67;5.33;;;;;;;;4986054;27;45847;-71
2022/09/05 05:23:54;;;;;;;;;7.33;6.33;;;;;;;;4990548;27;45244;-71
2022/09/05 05:26:21;;;;;;;;;7.00;5.00;;;;;;;;4983539;27;45454;-71
2022/09/05 05:29:05;;;;;;;;;9.67;5.00;;;;;;;;4985423;28;45481;-71
2022/09/05 05:31:32;;;;;;;;;8.00;5.67;;;;;;;;4987474;28;45256;-71
2022/09/05 05:34:00;;;;;;;;;9.33;6.67;;;;;;;;4994053;27;45279;-71
2022/09/05 05:36:34;;;;;;;;;10.00;6.00;;;;;;;;4987853;28;45477;-71
2022/09/05 05:39:11;;;;;;;;;7.00;7.00;;;;;;;;4988777;28;45447;-71
2022/09/05 05:41:42;;;;;;;;;8.33;6.67;;;;;;;;4985077;28;46294;-71
2022/09/05 05:44:12;;;;;;;;;9.00;6.33;;;;;;;;4984049;27;45297;-71
2022/09/05 05:46:39;;;;;;;;;7.33;7.33;;;;;;;;4980483;28;45279;-71
2022/09/05 05:49:23;;;;;;;;;6.00;6.00;;;;;;;;4982943;28;45516;-71
2022/09/05 05:51:57;;;;;;;;;8.33;6.33;;;;;;;;4981758;27;45394;-71
2022/09/05 05:54:22;;;;;;;;;7.67;5.00;;;;;;;;4985364;27;45328;-71
2022/09/05 05:56:51;;;;;;;;;12.75;6.50;;;;;;;;4983949;27;45212;-71
2022/09/05 05:59:51;;;;;;;;;8.33;6.33;;;;;;;;4980883;28;45288;-71
2022/09/05 06:02:27;;;;;;;;;8.00;7.00;;;;;;;;4966638;28;46317;-71
2022/09/05 06:04:55;;;;;;;;;9.00;6.33;;;;;;;;4979375;27;45266;-71
2022/09/05 06:07:26;;;;;;;;;11.00;8.00;;;;;;;;4981868;27;46817;-71
2022/09/05 06:10:11;;;;;;;;;7.67;7.67;;;;;;;;4986308;27;45474;-71
2022/09/05 06:13:01;;;;;;;;;14.33;8.67;;;;;;;;4989118;27;46225;-70
2022/09/05 06:15:45;;;;;;;;;12.33;8.00;;;;;;;;4979922;27;45426;-71
2022/09/05 06:18:19;;;;;;;;;10.00;8.00;;;;;;;;4994230;27;45561;-71
2022/09/05 06:21:08;;;;;;;;;11.67;9.00;;;;;;;;4989560;28;45287;-71
2022/09/05 06:23:45;;;;;;;;;9.33;8.67;;;;;;;;4979828;28;47099;-71
2022/09/05 06:26:29;;;;;;;;;13.67;12.67;;;;;;;;4978895;27;45301;-72
2022/09/05 06:29:00;;;;;;;;;14.00;10.33;;;;;;;;4986938;28;45544;-71
2022/09/05 06:31:48;;;;;;;;;10.67;9.67;;;;;;;;4981528;28;45299;-71
2022/09/05 06:34:19;;;;;;;;;11.33;11.00;;;;;;;;4989206;27;47622;-71
2022/09/05 06:36:44;;;;;;;;;11.67;9.67;;;;;;;;4988151;27;45398;-71
2022/09/05 06:39:09;;;;;;;;;10.25;10.25;;;;;;;;4983681;27;45312;-71
2022/09/05 06:41:53;;;;;;;;;15.00;9.00;;;;;;;;4989982;28;45279;-71
2022/09/05 06:44:21;;;;;;;;;11.00;8.00;;;;;;;;4995607;27;46859;-71
2022/09/05 06:46:48;;;;;;;;;11.33;11.00;;;;;;;;4981639;28;45473;-70
2022/09/05 06:49:17;;;;;;;;;9.67;9.67;;;;;;;;4986276;27;45382;-71
2022/09/05 06:52:14;;;;;;;;;10.67;10.67;;;;;;;;4983278;28;45259;-71
2022/09/05 06:54:48;;;;;;;;;12.00;10.00;;;;;;;;4966420;28;45658;-71
2022/09/05 06:57:13;;;;;;;;;11.00;9.50;;;;;;;;4982673;28;45344;-71
2022/09/05 06:59:38;;;;;;;;;9.00;9.00;;;;;;;;4987243;28;45215;-71
2022/09/05 07:02:30;;;;;;;;;9.00;9.00;;;;;;;;4994199;28;45389;-71
2022/09/05 07:05:14;;;;;;;;;9.00;9.00;;;;;;;;4991258;28;46181;-72
2022/09/05 07:07:40;;;;;;;;;6.67;5.33;;;;;;;;4987958;28;45447;-72
2022/09/05 07:10:12;;;;;;;;;8.00;8.00;;;;;;;;4982819;28;45460;-71
2022/09/05 07:12:37;;;;;;;;;6.00;6.00;;;;;;;;4977606;28;47115;-71
2022/09/05 07:15:05;;;;;;;;;9.33;7.33;;;;;;;;4979470;28;45569;-71
2022/09/05 07:17:33;;;;;;;;;6.67;5.67;;;;;;;;4990017;28;45356;-71
2022/09/05 07:20:01;;;;;;;;;5.33;5.33;;;;;;;;4985165;27;45273;-70
2022/09/05 07:22:33;;;;;;;;;7.33;6.00;;;;;;;;4991744;27;45466;-71
2022/09/05 07:25:09;;;;;;;;;6.67;6.00;;;;;;;;4993216;27;47035;-71
2022/09/05 07:27:45;;;;;;;;;5.67;5.00;;;;;;;;4988368;28;45441;-71
2022/09/05 07:30:12;;;;;;;;;4.67;4.67;;;;;;;;4979720;28;45323;-71
2022/09/05 07:32:42;;;;;;;;;7.25;6.00;;;;;;;;4980557;27;45506;-71
2022/09/05 07:35:12;;;;;;;;;7.33;6.00;;;;;;;;4995930;27;45391;-70
2022/09/05 07:37:39;;;;;;;;;4.00;4.00;;;;;;;;4994801;28;45459;-71
2022/09/05 07:40:08;;;;;;;;;6.33;5.33;;;;;;;;4986730;28;46161;-70
2022/09/05 07:42:40;;;;;;;;;7.50;6.00;;;;;;;;4980964;28;46069;-71
2022/09/05 07:45:09;;;;;;;;;7.00;7.00;;;;;;;;4983964;28;47250;-71
2022/09/05 07:47:37;;;;;;;;;5.75;4.75;;;;;;;;4992218;28;45411;-71
2022/09/05 07:50:06;;;;;;;;;5.00;5.00;;;;;;;;4979735;28;45501;-71
2022/09/05 07:52:36;;;;;;;;;4.25;4.00;;;;;;;;4987163;27;45446;-71
2022/09/05 07:55:07;;;;;;;;;4.50;4.50;;;;;;;;4980882;27;45437;-71
2022/09/05 07:57:38;;;;;;;;;4.25;4.25;;;;;;;;4979581;27;45462;-71
2022/09/05 08:00:09;;;;;;;;;5.00;5.00;;;;;;;;4983170;27;45379;-71
2022/09/05 08:02:39;;;;;;;;;4.75;4.75;;;;;;;;4995051;27;45375;-71
2022/09/05 08:05:04;;;;;;;;;5.00;5.00;;;;;;;;4989016;28;45397;-71
2022/09/05 08:07:34;;;;;;;;;7.00;6.25;;;;;;;;4988654;27;45515;-72
2022/09/05 08:10:11;;;;;;;;;5.00;5.00;;;;;;;;4994602;27;45383;-72
2022/09/05 08:12:39;;;;;;;;;4.00;4.00;;;;;;;;4980299;28;45752;-71
2022/09/05 08:15:08;;;;;;;;;5.00;5.00;;;;;;;;4987274;27;46069;-71
2022/09/05 08:17:42;;;;;;;;;6.00;5.00;;;;;;;;4991743;27;45438;-71
2022/09/05 08:20:07;;;;;;;;;5.00;5.00;;;;;;;;4990361;27;45416;-71
2022/09/05 08:22:48;;;;;;;;;4.50;4.50;;;;;;;;4996838;28;45416;-71
2022/09/05 08:25:19;;;;;;;;;5.00;5.00;;;;;;;;4991704;28;45434;-71
2022/09/05 08:27:47;;;;;;;;;9.00;9.00;;;;;;;;4995779;28;45544;-71
2022/09/05 08:30:12;;;;;;;;;6.25;5.00;;;;;;;;4990887;28;44891;-71
2022/09/05 08:32:58;;;;;;;;;6.00;6.00;;;;;;;;4996371;28;45509;-72
2022/09/05 08:35:27;;;;;;;;;7.25;7.25;;;;;;;;4995344;27;47168;-72
2022/09/05 08:37:53;;;;;;;;;6.25;5.25;;;;;;;;4995660;28;45456;-72
2022/09/05 08:40:18;;;;;;;;;9.75;7.00;;;;;;;;4992889;28;45528;-72
2022/09/05 08:42:46;;;;;;;;;10.75;9.25;;;;;;;;4996406;27;45482;-72
2022/09/05 08:45:16;;;;;;;;;12.75;10.25;;;;;;;;4988159;28;45335;-72
2022/09/05 08:47:57;;;;;;;;;12.50;10.25;;;;;;;;4993294;28;45441;-72
2022/09/05 08:50:22;;;;;;;;;11.75;9.00;;;;;;;;4994927;27;45541;-72
2022/09/05 08:53:06;;;;;;;;;16.00;10.50;;;;;;;;4992934;27;45564;-72
2022/09/05 08:55:40;;;;;;;;;5.00;4.50;;;;;;;;4982500;28;45497;-72
2022/09/05 08:58:17;;;;;;;;;7.00;7.00;;;;;;;;4989200;27;45405;-73
2022/09/05 09:00:45;;;;;;;;;5.00;4.75;;;;;;;;4986548;28;45626;-72
2022/09/05 09:03:43;;;;;;;;;4.25;4.25;;;;;;;;4990595;28;47085;-73
2022/09/05 09:06:17;;;;;;;;;4.25;4.25;;;;;;;;4969774;28;45460;-72
2022/09/05 09:08:54;;;;;;;;;4.40;3.60;;;;;;;;4995136;28;45380;-72
2022/09/05 09:11:38;;;;;;;;;5.25;4.75;;;;;;;;4984066;28;45327;-72
2022/09/05 09:14:21;;;;;;;;;7.50;5.25;;;;;;;;4989746;28;45343;-72
2022/09/05 09:16:52;;;;;;;;;4.75;4.00;;;;;;;;4984337;28;46159;-71
2022/09/05 09:19:22;;;;;;;;;4.00;4.00;;;;;;;;4991766;28;45504;-72
2022/09/05 09:21:57;;;;;;;;;3.25;3.25;;;;;;;;4980746;28;45244;-72
2022/09/05 09:24:25;;;;;;;;;3.80;3.00;;;;;;;;4988236;28;45434;-72
2022/09/05 09:27:09;;;;;;;;;4.75;4.75;;;;;;;;4987727;27;45496;-72
2022/09/05 09:29:37;;;;;;;;;2.60;2.20;;;;;;;;4985424;28;45463;-71
2022/09/05 09:32:09;;;;;;;;;2.20;1.80;;;;;;;;4992476;28;45421;-71
2022/09/05 09:34:37;;;;;;;;;2.50;2.50;;;;;;;;4995790;27;45468;-71
2022/09/05 09:37:07;;;;;;;;;3.00;3.00;;;;;;;;4994875;28;47254;-71
2022/09/05 09:39:52;;;;;;;;;3.20;3.20;;;;;;;;4991079;27;45311;-72
2022/09/05 09:42:24;;;;;;;;;3.80;3.80;;;;;;;;5007609;27;45340;-71
2022/09/05 09:44:55;;;;;;;;;1.80;1.80;;;;;;;;4982822;28;45437;-71
2022/09/05 09:47:39;;;;;;;;;2.20;2.20;;;;;;;;4982735;28;46220;-71
2022/09/05 09:50:16;;;;;;;;;3.60;3.20;;;;;;;;4991788;27;45397;-72
2022/09/05 09:52:41;;;;;;;;;3.20;3.20;;;;;;;;4996075;27;45541;-72
2022/09/05 09:55:26;;;;;;;;;3.00;3.00;;;;;;;;4990251;28;45384;-72
2022/09/05 09:58:15;;;;;;;;;3.60;1.80;;;;;;;;5000484;27;47976;-72
2022/09/05 10:00:40;;;;;;;;;2.00;2.00;;;;;;;;4986836;27;45459;-72
2022/09/05 10:03:12;;;;;;;;;4.00;2.25;;;;;;;;4989389;27;45312;-72
2022/09/05 10:05:40;;;;;;;;;2.20;2.20;;;;;;;;4992644;27;45362;-72
2022/09/05 10:08:05;;;;;;;;;2.40;2.40;;;;;;;;4999978;28;47131;-73
2022/09/05 10:10:39;;;;;;;;;1.75;1.50;;;;;;;;4984129;27;45320;-71
2022/09/05 10:13:11;;;;;;;;;1.80;1.80;;;;;;;;4990158;27;45376;-72
2022/09/05 10:15:39;;;;;;;;;2.40;2.40;;;;;;;;4977851;27;45309;-71
2022/09/05 10:18:25;;;;;;;;;2.20;2.20;;;;;;;;4980416;28;45403;-72
2022/09/05 10:20:59;;;;;;;;;1.80;1.00;;;;;;;;4978518;27;45400;-71
2022/09/05 10:23:47;;;;;;;;;1.20;1.20;;;;;;;;4988333;27;45371;-71
2022/09/05 10:26:31;;;;;;;;;1.40;0.20;;;;;;;;4992228;28;45243;-71
2022/09/05 10:29:05;;;;;;;;;3.40;1.80;;;;;;;;4991495;28;45473;-71
2022/09/05 10:31:43;;;;;;;;;1.00;1.00;;;;;;;;4995411;28;45371;-71
2022/09/05 10:34:34;;;;;;;;;2.40;1.20;;;;;;;;4996403;27;45500;-71
2022/09/05 10:37:01;;;;;;;;;0.60;0.00;;;;;;;;5003681;28;45694;-71
2022/09/05 10:39:28;;;;;;;;;2.20;1.00;;;;;;;;4982863;27;46062;-71
2022/09/05 10:41:55;;;;;;;;;2.20;1.20;;;;;;;;4985920;27;45421;-70
2022/09/05 10:44:35;;;;;;;;;1.60;1.60;;;;;;;;4989235;27;45481;-70
2022/09/05 10:47:04;;;;;;;;;1.00;1.00;;;;;;;;4991919;27;46116;-69
2022/09/05 10:49:33;;;;;;;;;1.00;0.60;;;;;;;;4990856;28;47141;-71
2022/09/05 10:52:01;;;;;;;;;1.80;1.80;;;;;;;;4993411;27;45455;-70
2022/09/05 10:54:38;;;;;;;;;1.00;1.00;;;;;;;;4986987;28;45489;-71
2022/09/05 10:57:04;;;;;;;;;1.40;1.40;;;;;;;;4994587;28;45469;-70
2022/09/05 10:59:34;;;;;;;;;1.50;1.50;;;;;;;;4985837;28;45650;-71
2022/09/05 11:02:07;;;;;;;;;1.00;1.00;;;;;;;;4985652;28;45907;-69
2022/09/05 11:04:48;;;;;;;;;1.00;0.00;;;;;;;;4991318;27;45575;-70
2022/09/05 11:07:16;;;;;;;;;1.00;1.00;;;;;;;;4992969;27;45454;-70
2022/09/05 11:09:41;;;;;;;;;0.20;0.20;;;;;;;;4980413;28;46275;-71
2022/09/05 11:12:31;;;;;;;;;0.25;0.25;;;;;;;;4993544;28;45526;-70
2022/09/05 11:14:57;;;;;;;;;1.40;1.40;;;;;;;;4979934;28;45355;-71
2022/09/05 11:17:29;;;;;;;;;2.60;1.60;;;;;;;;4977708;27;45287;-71
2022/09/05 11:20:02;;;;;;;;;0.00;0.00;;;;;;;;4977905;28;45353;-70
2022/09/05 11:22:33;;;;;;;;;0.00;0.00;;;;;;;;4993971;27;45450;-71
2022/09/05 11:25:01;;;;;;;;;0.40;0.40;;;;;;;;4988316;27;45704;-70
2022/09/05 11:27:29;;;;;;;;;0.40;0.40;;;;;;;;4980309;27;45465;-71
2022/09/05 11:29:57;;;;;;;;;1.40;0.40;;;;;;;;4986729;27;46204;-70
2022/09/05 11:32:37;;;;;;;;;0.00;0.00;;;;;;;;4981334;27;45267;-71
2022/09/05 11:35:20;;;;;;;;;0.00;0.00;;;;;;;;4998450;27;45380;-70
2022/09/05 11:37:54;;;;;;;;;0.20;0.20;;;;;;;;4985656;28;45359;-72
2022/09/05 11:40:38;;;;;;;;;1.00;0.60;;;;;;;;4985787;27;45474;-72
2022/09/05 11:43:03;;;;;;;;;0.40;0.40;;;;;;;;4989327;27;45982;-72
2022/09/05 11:45:35;;;;;;;;;0.50;0.50;;;;;;;;4986907;28;45194;-73
2022/09/05 11:48:21;;;;;;;;;1.80;0.80;;;;;;;;4983738;27;45561;-71
2022/09/05 11:50:56;;;;;;;;;2.00;0.40;;;;;;;;4989351;28;47191;-71
2022/09/05 11:53:41;;;;;;;;;0.80;0.80;;;;;;;;4992644;28;45400;-72
2022/09/05 11:56:16;;;;;;;;;0.00;0.00;;;;;;;;4994767;27;45330;-71
2022/09/05 11:58:50;;;;;;;;;0.00;0.00;;;;;;;;4995306;27;45846;-71
2022/09/05 12:01:37;;;;;;;;;0.00;0.00;;;;;;;;4978868;27;45362;-72
2022/09/05 12:04:21;;;;;;;;;0.00;0.00;;;;;;;;4984216;27;45436;-71
2022/09/05 12:07:07;;;;;;;;;0.00;0.00;;;;;;;;4990120;27;45661;-71
2022/09/05 12:09:55;;;;;;;;;0.00;0.00;;;;;;;;4990859;27;45455;-71
2022/09/05 12:12:40;;;;;;;;;0.80;0.80;;;;;;;;4987604;28;45462;-71
2022/09/05 12:15:24;;;;;;;;;2.00;1.00;;;;;;;;4991671;27;45978;-71
2022/09/05 12:17:52;;;;;;;;;1.00;1.00;;;;;;;;4983611;28;45412;-71
2022/09/05 12:20:25;;;;;;;;;0.00;0.00;;;;;;;;4982895;28;45519;-71
2022/09/05 12:23:01;;;;;;;;;0.80;0.80;;;;;;;;4989727;27;45978;-71
2022/09/05 12:25:38;;;;;;;;;1.00;1.00;;;;;;;;4990432;27;45509;-72
2022/09/05 12:28:06;;;;;;;;;1.20;1.00;;;;;;;;4982346;28;45424;-71
2022/09/05 12:30:36;;;;;;;;;1.00;1.00;;;;;;;;4986492;27;45480;-70
2022/09/05 12:33:21;;;;;;;;;1.20;0.00;;;;;;;;4985786;27;45324;-71
2022/09/05 12:35:53;;;;;;;;;1.20;0.00;;;;;;;;4997941;27;45328;-71
2022/09/05 12:38:29;;;;;;;;;1.20;0.60;;;;;;;;4994586;27;45608;-73
2022/09/05 12:41:13;;;;;;;;;0.00;0.00;;;;;;;;4988228;28;45541;-71
2022/09/05 12:44:01;;;;;;;;;1.60;1.60;;;;;;;;4993665;27;47478;-72
2022/09/05 12:46:44;;;;;;;;;1.00;0.80;;;;;;;;4986367;28;45664;-72
2022/09/05 12:49:16;;;;;;;;;1.00;1.00;;;;;;;;4988352;28;45390;-70
2022/09/05 12:51:52;;;;;;;;;1.00;1.00;;;;;;;;4983606;27;45343;-71
2022/09/05 12:54:32;;;;;;;;;1.40;1.40;;;;;;;;4986263;27;45524;-70
2022/09/05 12:56:57;;;;;;;;;1.60;1.60;;;;;;;;4980635;28;45708;-71
2022/09/05 12:59:23;;;;;;;;;3.00;1.00;;;;;;;;4983642;27;45520;-70
2022/09/05 13:02:02;;;;;;;;;0.40;0.40;;;;;;;;4980950;27;45424;-71
2022/09/05 13:04:40;;;;;;;;;3.20;2.00;;;;;;;;4985133;27;46084;-71
2022/09/05 13:07:08;;;;;;;;;1.80;1.20;;;;;;;;4994175;27;45426;-72
2022/09/05 13:09:39;;;;;;;;;1.20;1.20;;;;;;;;4989008;27;45414;-72
2022/09/05 13:12:18;;;;;;;;;3.20;1.60;;;;;;;;4984521;27;45319;-72
2022/09/05 13:15:04;;;;;;;;;1.60;1.60;;;;;;;;4985191;27;46914;-72
2022/09/05 13:17:37;;;;;;;;;0.40;0.40;;;;;;;;4982249;28;45418;-73
2022/09/05 13:20:15;;;;;;;;;2.80;1.40;;;;;;;;4987515;27;45554;-73
2022/09/05 13:22:42;;;;;;;;;2.00;2.00;;;;;;;;4988597;27;45482;-73
2022/09/05 13:25:11;;;;;;;;;2.00;2.00;;;;;;;;4983602;28;45589;-73
2022/09/05 13:27:41;;;;;;;;;2.00;2.00;;;;;;;;4985199;28;45408;-72
2022/09/05 13:30:11;;;;;;;;;2.80;1.40;;;;;;;;4985945;28;45354;-72
2022/09/05 13:32:37;;;;;;;;;2.80;1.20;;;;;;;;4986126;28;46301;-71
2022/09/05 13:35:05;;;;;;;;;3.00;2.20;;;;;;;;4998962;27;45622;-72
2022/09/05 13:37:37;;;;;;;;;2.80;1.80;;;;;;;;4989587;27;45558;-72
2022/09/05 13:40:22;;;;;;;;;2.20;2.20;;;;;;;;4988879;27;45263;-72
2022/09/05 13:43:06;;;;;;;;;1.60;1.60;;;;;;;;4990191;28;45729;-72
2022/09/05 13:45:36;;;;;;;;;2.40;2.00;;;;;;;;4990519;28;47101;-73
2022/09/05 13:48:01;;;;;;;;;1.40;1.40;;;;;;;;4979330;28;45611;-73
2022/09/05 13:50:29;;;;;;;;;2.00;2.00;;;;;;;;4980177;27;45381;-74
2022/09/05 13:52:57;;;;;;;;;4.40;3.20;;;;;;;;4981765;28;45360;-74
2022/09/05 13:55:40;;;;;;;;;2.80;2.60;;;;;;;;4981583;28;46312;-72
2022/09/05 13:58:06;;;;;;;;;2.80;2.00;;;;;;;;4983380;28;45402;-73
2022/09/05 14:00:36;;;;;;;;;2.00;2.00;;;;;;;;4985207;27;45544;-74
2022/09/05 14:03:07;;;;;;;;;2.80;1.00;;;;;;;;4987867;27;45548;-74
2022/09/05 14:05:44;;;;;;;;;2.40;2.20;;;;;;;;4990389;28;45971;-73
2022/09/05 14:08:16;;;;;;;;;5.20;4.80;;;;;;;;4988193;27;45584;-74
2022/09/05 14:10:42;;;;;;;;;2.60;2.60;;;;;;;;4989069;27;45243;-73
2022/09/05 14:13:13;;;;;;;;;3.00;2.75;;;;;;;;4990965;27;45285;-74
2022/09/05 14:15:50;;;;;;;;;2.00;2.00;;;;;;;;4981773;27;46318;-73
2022/09/05 14:18:15;;;;;;;;;2.00;2.00;;;;;;;;4986988;28;45382;-73
2022/09/05 14:23:35;;;;;;;;;2.20;2.20;;;;;;;;4987187;28;45355;-72
2022/09/05 14:26:02;;;;;;;;;3.40;2.40;;;;;;;;4985028;27;45455;-72
2022/09/05 14:28:44;;;;;;;;;3.00;3.00;;;;;;;;4980588;28;45393;-72
2022/09/05 14:31:12;;;;;;;;;3.40;3.40;;;;;;;;4985439;27;45438;-72
2022/09/05 14:33:38;;;;;;;;;2.40;2.40;;;;;;;;4991046;27;45415;-72
2022/09/05 14:36:11;;;;;;;;;3.60;3.00;;;;;;;;4998550;27;46362;-72
2022/09/05 14:39:12;;;;;;;;;6.20;5.60;;;;;;;;4989880;28;45473;-72
2022/09/05 14:41:57;;;;;;;;;4.00;3.00;;;;;;;;4967857;28;45447;-72
2022/09/05 14:44:41;;;;;;;;;3.20;3.20;;;;;;;;4982795;27;45473;-72
2022/09/05 14:47:12;;;;;;;;;3.40;3.40;;;;;;;;4986608;28;47756;-73
2022/09/05 14:49:43;;;;;;;;;3.00;3.00;;;;;;;;4984703;28;45425;-72
2022/09/05 14:52:22;;;;;;;;;0.00;0.00;;;;;;;;4992972;28;45329;-72
2022/09/05 14:54:52;;;;;;;;;2.00;2.00;;;;;;;;4987246;28;45446;-72
2022/09/05 14:57:19;;;;;;;;;2.00;2.00;;;;;;;;4994617;28;46987;-72
2022/09/05 14:59:48;;;;;;;;;3.80;3.80;;;;;;;;4993275;28;45527;-73
2022/09/05 15:02:19;;;;;;;;;2.60;2.60;;;;;;;;4997513;27;45445;-72
2022/09/05 15:04:46;;;;;;;;;4.80;3.00;;;;;;;;4988046;27;45541;-72
2022/09/05 15:07:15;;;;;;;;;2.80;2.40;;;;;;;;4998318;27;45258;-72
2022/09/05 15:09:40;;;;;;;;;3.40;3.40;;;;;;;;4996482;27;45708;-72
2022/09/05 15:12:16;;;;;;;;;2.50;2.50;;;;;;;;4996462;28;45410;-72
2022/09/05 15:14:48;;;;;;;;;3.60;2.40;;;;;;;;4989672;28;45320;-72
2022/09/05 15:17:19;;;;;;;;;5.00;2.00;;;;;;;;4996414;28;45985;-72
2022/09/05 15:20:11;;;;;;;;;3.00;3.00;;;;;;;;4990749;28;46320;-73
2022/09/05 15:22:40;;;;;;;;;4.60;2.00;;;;;;;;4996876;28;45444;-72